createdAt,value
2017-09-14T00:00:36.388Z,2.9
2017-09-14T00:01:38.806Z,2.3
2017-09-14T00:02:41.938Z,2.9
2017-09-14T00:03:43.637Z,3.0
2017-09-14T00:04:46.241Z,2.9
2017-09-14T00:05:52.563Z,2.4
2017-09-14T00:06:55.333Z,2.8
2017-09-14T00:07:57.399Z,2.5
2017-09-14T00:09:00.017Z,2.7
2017-09-14T00:10:02.334Z,3.3
2017-09-14T00:11:04.425Z,2.8
2017-09-14T00:12:08.451Z,2.7
2017-09-14T00:13:10.893Z,2.6
2017-09-14T00:14:14.140Z,2.4
2017-09-14T00:15:18.545Z,3.0
2017-09-14T00:16:21.161Z,3.0
2017-09-14T00:17:25.139Z,2.6
2017-09-14T00:18:33.171Z,2.6
2017-09-14T00:19:35.485Z,2.8
2017-09-14T00:20:39.435Z,2.3
2017-09-14T00:21:42.368Z,2.6
2017-09-14T00:22:44.752Z,2.4
2017-09-14T00:23:48.048Z,2.5
2017-09-14T00:24:51.192Z,3.0
2017-09-14T00:25:56.696Z,2.5
2017-09-14T00:26:59.310Z,2.5
2017-09-14T00:28:06.652Z,2.9
2017-09-14T00:29:11.546Z,2.6
2017-09-14T00:30:13.044Z,3.1
2017-09-14T00:31:14.707Z,2.7
2017-09-14T00:32:18.628Z,2.7
2017-09-14T00:33:21.134Z,2.9
2017-09-14T00:34:23.396Z,2.7
2017-09-14T00:35:26.271Z,2.6
2017-09-14T00:36:29.183Z,2.7
2017-09-14T00:37:30.847Z,3.2
2017-09-14T00:38:33.650Z,3.1
2017-09-14T00:39:37.193Z,2.7
2017-09-14T00:40:40.288Z,2.4
2017-09-14T00:41:42.755Z,2.5
2017-09-14T00:42:46.163Z,2.7
2017-09-14T00:43:52.048Z,2.6
2017-09-14T00:44:53.811Z,2.5
2017-09-14T00:45:58.100Z,2.4
2017-09-14T00:47:04.160Z,2.9
2017-09-14T00:48:06.654Z,2.7
2017-09-14T00:49:09.755Z,2.8
2017-09-14T00:50:14.852Z,3.0
2017-09-14T00:51:18.548Z,2.5
2017-09-14T00:52:21.549Z,2.3
2017-09-14T00:53:26.269Z,3.1
2017-09-14T00:54:31.185Z,2.5
2017-09-14T00:55:35.430Z,2.6
2017-09-14T00:56:37.081Z,2.5
2017-09-14T00:57:39.635Z,2.5
2017-09-14T00:58:42.979Z,2.7
2017-09-14T00:59:47.606Z,2.3
2017-09-14T01:00:52.271Z,2.4
2017-09-14T01:01:55.221Z,2.8
2017-09-14T01:02:57.852Z,2.5
2017-09-14T01:04:00.523Z,2.8
2017-09-14T01:05:04.672Z,2.6
2017-09-14T01:06:10.098Z,2.4
2017-09-14T01:07:13.627Z,2.7
2017-09-14T01:08:17.287Z,2.8
2017-09-14T01:09:19.628Z,2.6
2017-09-14T01:10:23.550Z,2.6
2017-09-14T01:11:24.435Z,2.7
2017-09-14T01:12:28.589Z,2.2
2017-09-14T01:13:31.578Z,2.5
2017-09-14T01:14:34.700Z,2.7
2017-09-14T01:15:39.549Z,2.5
2017-09-14T01:16:42.619Z,2.5
2017-09-14T01:17:44.869Z,2.7
2017-09-14T01:18:50.048Z,2.4
2017-09-14T01:19:51.613Z,2.8
2017-09-14T01:20:54.773Z,2.3
2017-09-14T01:21:58.762Z,2.4
2017-09-14T01:23:02.148Z,2.8
2017-09-14T01:24:04.448Z,2.5
2017-09-14T01:25:08.773Z,2.4
2017-09-14T01:26:10.428Z,3.0
2017-09-14T01:27:14.307Z,2.6
2017-09-14T01:28:18.288Z,3.1
2017-09-14T01:29:21.511Z,2.9
2017-09-14T01:30:23.160Z,2.4
2017-09-14T01:31:27.106Z,3.1
2017-09-14T01:32:31.093Z,2.7
2017-09-14T01:33:34.357Z,2.8
2017-09-14T01:34:39.055Z,3.1
2017-09-14T01:35:41.792Z,2.7
2017-09-14T01:36:45.116Z,2.8
2017-09-14T01:37:48.211Z,3.3
2017-09-14T01:38:53.118Z,3.0
2017-09-14T01:39:56.697Z,3.2
2017-09-14T01:41:02.185Z,2.7
2017-09-14T01:42:05.258Z,2.8
2017-09-14T01:43:08.383Z,3.1
2017-09-14T01:44:10.041Z,3.2
2017-09-14T01:45:12.664Z,3.2
2017-09-14T01:46:14.310Z,3.0
2017-09-14T01:47:18.166Z,3.0
2017-09-14T01:48:21.469Z,2.8
2017-09-14T01:49:24.553Z,3.2
2017-09-14T01:50:26.237Z,3.4
2017-09-14T01:51:29.176Z,3.1
2017-09-14T01:52:31.403Z,3.2
2017-09-14T01:53:33.790Z,3.0
2017-09-14T01:54:36.270Z,3.4
2017-09-14T01:55:40.221Z,3.0
2017-09-14T02:01:48.228Z,3.0
2017-09-14T06:01:28.404Z,3.0
2017-09-14T06:02:29.360Z,3.4
2017-09-14T06:03:32.176Z,3.9
2017-09-14T06:04:35.601Z,4.2
2017-09-14T06:05:37.872Z,4.5
2017-09-14T06:06:40.576Z,4.4
2017-09-14T06:07:44.059Z,3.8
2017-09-14T06:08:45.714Z,3.6
2017-09-14T06:09:49.011Z,3.6
2017-09-14T06:10:53.131Z,3.7
2017-09-14T06:11:57.131Z,3.7
2017-09-14T06:12:58.787Z,4.1
2017-09-14T06:14:02.407Z,4.2
2017-09-14T06:15:03.773Z,4.2
2017-09-14T06:16:08.460Z,4.8
2017-09-14T06:17:11.046Z,3.6
2017-09-14T06:18:14.213Z,4.4
2017-09-14T06:19:17.577Z,4.0
2017-09-14T06:20:24.476Z,3.6
2017-09-14T06:21:27.529Z,3.8
2017-09-14T06:22:29.196Z,3.5
2017-09-14T06:23:31.826Z,3.6
2017-09-14T06:24:37.955Z,3.9
2017-09-14T06:25:44.133Z,4.0
2017-09-14T06:26:47.159Z,4.1
2017-09-14T06:27:48.812Z,4.0
2017-09-14T06:28:51.376Z,4.0
2017-09-14T06:29:54.576Z,4.4
2017-09-14T06:30:57.614Z,4.0
2017-09-14T06:32:01.908Z,3.9
2017-09-14T06:33:03.536Z,3.1
2017-09-14T06:34:05.767Z,3.5
2017-09-14T06:35:09.499Z,3.7
2017-09-14T06:36:12.540Z,4.0
2017-09-14T06:37:14.948Z,3.8
2017-09-14T06:38:18.535Z,4.1
2017-09-14T06:39:23.015Z,4.0
2017-09-14T06:40:26.973Z,3.6
2017-09-14T06:41:31.230Z,4.1
2017-09-14T06:42:34.501Z,3.6
2017-09-14T06:43:36.160Z,3.6
2017-09-14T06:44:39.408Z,3.2
2017-09-14T06:45:41.564Z,3.2
2017-09-14T06:46:43.916Z,3.3
2017-09-14T06:47:47.075Z,3.0
2017-09-14T06:48:52.532Z,3.6
2017-09-14T06:49:56.015Z,3.3
2017-09-14T06:51:00.155Z,3.3
2017-09-14T06:52:02.598Z,3.5
2017-09-14T06:53:05.013Z,3.8
2017-09-14T06:54:09.014Z,4.1
2017-09-14T06:55:11.181Z,3.8
2017-09-14T06:56:14.991Z,4.6
2017-09-14T06:57:18.907Z,3.6
2017-09-14T06:58:21.313Z,3.4
2017-09-14T06:59:24.744Z,4.3
2017-09-14T07:00:28.842Z,3.2
2017-09-14T07:01:34.150Z,3.9
2017-09-14T07:02:37.410Z,3.7
2017-09-14T07:03:40.410Z,3.5
2017-09-14T07:04:41.882Z,3.7
2017-09-14T07:05:44.800Z,3.5
2017-09-14T07:06:48.498Z,3.5
2017-09-14T07:07:50.161Z,3.6
2017-09-14T07:08:53.594Z,3.5
2017-09-14T07:09:57.010Z,3.4
2017-09-14T07:10:59.472Z,3.7
2017-09-14T07:12:04.174Z,3.6
2017-09-14T07:13:07.999Z,3.6
2017-09-14T07:14:10.550Z,3.0
2017-09-14T07:15:14.104Z,2.9
2017-09-14T07:16:18.040Z,2.9
2017-09-14T07:17:21.474Z,3.0
2017-09-14T07:18:24.336Z,3.2
2017-09-14T07:19:26.003Z,3.0
2017-09-14T07:20:28.170Z,3.4
2017-09-14T07:21:31.914Z,3.1
2017-09-14T07:22:33.564Z,3.1
2017-09-14T07:23:35.220Z,3.7
2017-09-14T07:24:36.890Z,2.8
2017-09-14T07:25:39.501Z,2.5
2017-09-14T07:26:42.081Z,3.4
2017-09-14T07:27:45.492Z,3.0
2017-09-14T07:28:48.659Z,2.8
2017-09-14T07:29:51.614Z,3.1
2017-09-14T07:30:53.278Z,2.9
2017-09-14T07:31:57.097Z,3.1
2017-09-14T07:33:00.213Z,2.9
2017-09-14T07:34:03.420Z,3.3
2017-09-14T07:35:05.935Z,3.4
2017-09-14T07:36:09.665Z,3.1
2017-09-14T07:37:12.867Z,2.9
2017-09-14T07:38:16.759Z,2.5
2017-09-14T07:39:21.217Z,3.1
2017-09-14T07:40:23.679Z,3.2
2017-09-14T07:41:26.100Z,2.7
2017-09-14T07:42:29.588Z,3.2
2017-09-14T07:43:33.128Z,3.1
2017-09-14T07:44:35.416Z,3.6
2017-09-14T07:45:37.170Z,3.4
2017-09-14T07:46:40.088Z,3.8
2017-09-14T07:47:45.240Z,3.9
2017-09-14T07:48:46.908Z,4.2
2017-09-14T07:49:52.913Z,4.0
2017-09-14T07:50:54.206Z,4.0
2017-09-14T07:51:57.237Z,3.9
2017-09-14T07:52:58.894Z,4.5
2017-09-14T07:54:01.030Z,4.0
2017-09-14T07:55:03.451Z,3.8
2017-09-14T07:56:08.220Z,4.7
2017-09-14T07:57:11.385Z,4.0
2017-09-14T07:58:13.043Z,5.1
2017-09-14T07:59:14.709Z,4.4
2017-09-14T08:00:17.383Z,4.4
2017-09-14T08:01:21.574Z,6.2
2017-09-14T08:02:26.530Z,6.3
2017-09-14T08:03:30.868Z,5.1
2017-09-14T08:04:33.505Z,5.5
2017-09-14T08:05:37.135Z,4.8
2017-09-14T08:06:42.086Z,4.9
2017-09-14T08:07:45.300Z,5.3
2017-09-14T08:08:49.030Z,3.8
2017-09-14T08:09:50.698Z,3.3
2017-09-14T08:10:53.194Z,3.0
2017-09-14T08:11:56.144Z,3.6
2017-09-14T08:12:58.778Z,4.0
2017-09-14T08:14:02.684Z,3.9
2017-09-14T08:15:04.359Z,3.0
2017-09-14T08:16:08.432Z,2.9
2017-09-14T08:17:10.596Z,3.2
2017-09-14T08:18:15.476Z,2.2
2017-09-14T08:19:18.119Z,2.4
2017-09-14T08:20:21.313Z,2.1
2017-09-14T08:21:24.179Z,2.3
2017-09-14T08:22:26.575Z,2.4
2017-09-14T08:23:29.481Z,2.5
2017-09-14T08:24:33.583Z,2.2
2017-09-14T08:25:38.091Z,2.4
2017-09-14T08:26:41.423Z,2.8
2017-09-14T08:27:45.527Z,2.9
2017-09-14T08:28:50.605Z,2.3
2017-09-14T08:29:54.002Z,2.6
2017-09-14T08:30:57.706Z,2.4
2017-09-14T08:32:00.203Z,2.5
2017-09-14T08:33:04.521Z,2.3
2017-09-14T08:34:07.021Z,2.1
2017-09-14T08:35:12.557Z,2.1
2017-09-14T08:36:16.206Z,2.4
2017-09-14T08:37:19.421Z,2.0
2017-09-14T08:38:21.109Z,2.3
2017-09-14T08:39:22.760Z,2.2
2017-09-14T08:40:28.079Z,1.9
2017-09-14T08:41:30.629Z,2.2
2017-09-14T08:42:35.920Z,2.8
2017-09-14T08:43:39.055Z,2.3
2017-09-14T08:44:41.422Z,2.9
2017-09-14T08:45:44.339Z,2.5
2017-09-14T08:46:46.890Z,2.8
2017-09-14T08:47:50.966Z,2.8
2017-09-14T08:48:53.719Z,2.1
2017-09-14T08:49:56.042Z,1.9
2017-09-14T08:50:59.920Z,2.2
2017-09-14T08:52:02.048Z,2.5
2017-09-14T08:53:04.403Z,2.4
2017-09-14T08:54:06.577Z,2.2
2017-09-14T08:55:12.052Z,2.0
2017-09-14T08:56:14.211Z,1.9
2017-09-14T08:57:17.423Z,1.9
2017-09-14T08:58:18.109Z,2.2
2017-09-14T08:59:21.466Z,1.9
2017-09-14T09:00:25.049Z,1.8
2017-09-14T09:01:27.197Z,1.6
2017-09-14T09:02:30.421Z,1.6
2017-09-14T09:03:33.255Z,2.0
2017-09-14T09:04:35.670Z,2.0
2017-09-14T09:05:39.502Z,2.0
2017-09-14T09:06:42.606Z,2.0
2017-09-14T09:07:45.037Z,2.0
2017-09-14T09:08:47.197Z,1.7
2017-09-14T09:09:51.421Z,1.8
2017-09-14T09:10:52.883Z,1.8
2017-09-14T09:11:57.048Z,1.9
2017-09-14T09:13:01.037Z,1.6
2017-09-14T09:14:05.009Z,2.1
2017-09-14T09:15:08.826Z,1.6
2017-09-14T09:16:11.568Z,1.5
2017-09-14T09:17:14.041Z,1.6
2017-09-14T09:18:18.049Z,2.0
2017-09-14T09:19:22.280Z,1.8
2017-09-14T09:20:26.501Z,1.5
2017-09-14T09:21:29.999Z,1.2
2017-09-14T09:22:32.194Z,1.8
2017-09-14T09:23:34.790Z,1.8
2017-09-14T09:24:38.880Z,1.4
2017-09-14T09:25:40.565Z,1.5
2017-09-14T09:26:42.245Z,1.5
2017-09-14T09:27:43.940Z,1.7
2017-09-14T09:28:48.638Z,1.8
2017-09-14T09:29:53.840Z,1.7
2017-09-14T09:31:00.014Z,1.3
2017-09-14T09:32:04.981Z,1.6
2017-09-14T09:33:07.208Z,2.0
2017-09-14T09:34:10.708Z,1.4
2017-09-14T09:35:16.425Z,1.4
2017-09-14T09:36:17.925Z,1.4
2017-09-14T09:37:20.572Z,1.5
2017-09-14T09:38:23.890Z,1.5
2017-09-14T09:39:27.206Z,1.3
2017-09-14T09:40:29.491Z,1.8
2017-09-14T09:41:31.684Z,1.6
2017-09-14T09:42:37.007Z,1.6
2017-09-14T09:43:40.639Z,1.6
2017-09-14T09:44:43.699Z,2.0
2017-09-14T09:45:46.718Z,2.1
2017-09-14T09:46:51.222Z,1.7
2017-09-14T09:47:52.897Z,1.8
2017-09-14T09:48:56.004Z,1.6
2017-09-14T09:49:58.277Z,1.3
2017-09-14T09:51:01.136Z,1.3
2017-09-14T09:52:05.178Z,1.4
2017-09-14T09:53:09.156Z,1.4
2017-09-14T09:54:10.811Z,1.7
2017-09-14T10:01:01.887Z,1.2
2017-09-14T10:02:04.951Z,1.9
2017-09-14T10:03:08.165Z,1.4
2017-09-14T10:04:12.780Z,1.5
2017-09-14T10:05:14.447Z,1.6
2017-09-14T10:06:16.835Z,1.7
2017-09-14T10:07:19.749Z,1.6
2017-09-14T10:08:21.410Z,1.3
2017-09-14T10:09:23.844Z,1.6
2017-09-14T10:10:26.167Z,1.3
2017-09-14T10:11:28.494Z,1.6
2017-09-14T10:12:32.670Z,1.7
2017-09-14T10:13:34.100Z,1.5
2017-09-14T10:14:35.777Z,1.5
2017-09-14T10:15:39.450Z,1.5
2017-09-14T10:16:41.821Z,1.9
2017-09-14T10:17:44.369Z,1.6
2017-09-14T10:18:46.861Z,1.6
2017-09-14T10:19:49.669Z,1.6
2017-09-14T10:20:52.282Z,1.9
2017-09-14T10:21:54.520Z,1.8
2017-09-14T10:22:59.713Z,1.7
2017-09-14T10:24:01.926Z,1.6
2017-09-14T10:25:05.381Z,1.6
2017-09-14T10:26:09.957Z,1.8
2017-09-14T10:27:13.887Z,1.6
2017-09-14T10:28:18.340Z,2.0
2017-09-14T10:29:22.180Z,1.4
2017-09-14T10:30:25.235Z,1.9
2017-09-14T10:31:28.913Z,1.8
2017-09-14T10:32:32.809Z,1.4
2017-09-14T10:33:37.271Z,1.4
2017-09-14T10:34:42.810Z,1.9
2017-09-14T10:35:45.002Z,1.7
2017-09-14T10:36:47.696Z,2.0
2017-09-14T10:37:50.237Z,1.8
2017-09-14T10:38:53.203Z,1.8
2017-09-14T10:39:56.417Z,1.8
2017-09-14T10:41:00.776Z,1.7
2017-09-14T10:42:02.440Z,1.9
2017-09-14T10:43:04.676Z,1.7
2017-09-14T10:44:06.302Z,2.2
2017-09-14T10:45:08.783Z,1.6
2017-09-14T10:46:10.453Z,1.6
2017-09-14T10:47:13.701Z,1.6
2017-09-14T10:48:16.349Z,2.1
2017-09-14T10:49:20.285Z,1.6
2017-09-14T10:50:24.846Z,2.0
2017-09-14T10:51:28.176Z,2.2
2017-09-14T10:52:30.456Z,1.9
2017-09-14T10:53:34.144Z,2.0
2017-09-14T10:54:41.920Z,1.6
2017-09-14T10:55:43.587Z,1.9
2017-09-14T10:56:48.249Z,2.2
2017-09-14T10:57:50.495Z,3.1
2017-09-14T10:58:54.322Z,2.3
2017-09-14T10:59:58.177Z,2.0
2017-09-14T11:01:01.004Z,2.3
2017-09-14T11:02:04.753Z,2.2
2017-09-14T11:03:07.751Z,3.9
2017-09-14T11:04:11.216Z,2.5
2017-09-14T11:05:12.883Z,2.2
2017-09-14T11:06:14.553Z,2.2
2017-09-14T11:07:16.912Z,2.4
2017-09-14T11:08:18.580Z,1.7
2017-09-14T11:09:21.820Z,1.9
2017-09-14T11:10:25.341Z,1.9
2017-09-14T11:11:29.776Z,1.9
2017-09-14T11:12:33.162Z,2.4
2017-09-14T11:13:35.564Z,1.8
2017-09-14T11:14:40.240Z,1.8
2017-09-14T11:15:43.387Z,1.9
2017-09-14T11:16:47.849Z,1.6
2017-09-14T11:17:50.857Z,1.9
2017-09-14T11:18:54.110Z,1.8
2017-09-14T11:19:56.382Z,1.9
2017-09-14T11:21:00.787Z,2.0
2017-09-14T11:22:02.461Z,1.8
2017-09-14T11:23:04.868Z,1.7
2017-09-14T11:24:09.805Z,2.0
2017-09-14T11:25:14.242Z,1.8
2017-09-14T11:26:16.840Z,1.6
2017-09-14T11:27:19.332Z,1.9
2017-09-14T11:28:21.038Z,1.6
2017-09-14T11:29:26.578Z,1.8
2017-09-14T11:30:29.923Z,2.3
2017-09-14T11:31:38.758Z,1.6
2017-09-14T11:32:44.471Z,1.7
2017-09-14T11:33:48.818Z,1.8
2017-09-14T11:34:53.260Z,1.5
2017-09-14T11:35:58.341Z,1.9
2017-09-14T11:37:02.570Z,1.9
2017-09-14T11:38:05.706Z,1.8
2017-09-14T11:39:08.187Z,1.7
2017-09-14T11:40:09.533Z,1.7
2017-09-14T11:41:13.688Z,2.1
2017-09-14T11:42:15.421Z,2.4
2017-09-14T11:43:17.080Z,2.3
2017-09-14T11:44:18.947Z,1.9
2017-09-14T11:45:22.737Z,2.0
2017-09-14T11:46:25.690Z,2.4
2017-09-14T11:47:29.419Z,2.1
2017-09-14T11:48:31.772Z,2.3
2017-09-14T11:49:34.307Z,2.3
2017-09-14T11:50:36.692Z,2.6
2017-09-14T11:51:37.653Z,2.4
2017-09-14T11:52:42.760Z,2.4
2017-09-14T11:53:44.424Z,2.2
2017-09-14T11:54:46.851Z,2.2
2017-09-14T11:55:48.621Z,2.3
2017-09-14T11:56:52.364Z,2.1
2017-09-14T11:57:56.857Z,2.0
2017-09-14T11:59:00.049Z,1.8
2017-09-14T12:00:03.917Z,1.8
2017-09-14T12:01:07.101Z,1.9
2017-09-14T12:02:10.283Z,2.2
2017-09-14T12:03:13.594Z,1.4
2017-09-14T12:04:16.417Z,1.7
2017-09-14T12:05:18.115Z,1.7
2017-09-14T12:06:21.361Z,1.8
2017-09-14T12:07:24.431Z,1.6
2017-09-14T12:08:30.195Z,1.8
2017-09-14T12:09:34.283Z,1.9
2017-09-14T12:10:36.922Z,1.6
2017-09-14T12:11:39.297Z,1.9
2017-09-14T12:12:43.429Z,1.9
2017-09-14T12:13:45.808Z,1.8
2017-09-14T12:14:50.703Z,1.8
2017-09-14T12:15:53.937Z,1.9
2017-09-14T12:16:56.758Z,2.1
2017-09-14T12:17:59.283Z,1.6
2017-09-14T12:19:00.965Z,1.7
2017-09-14T12:20:04.202Z,1.8
2017-09-14T12:21:05.884Z,1.5
2017-09-14T12:22:10.762Z,1.9
2017-09-14T12:23:13.774Z,2.0
2017-09-14T12:24:17.700Z,1.5
2017-09-14T12:25:20.241Z,1.5
2017-09-14T12:26:24.493Z,1.4
2017-09-14T12:27:26.712Z,1.8
2017-09-14T12:28:30.105Z,1.5
2017-09-14T12:29:34.572Z,1.7
2017-09-14T12:30:39.587Z,1.7
2017-09-14T12:31:43.195Z,1.5
2017-09-14T12:32:44.150Z,1.8
2017-09-14T12:33:46.436Z,1.6
2017-09-14T12:34:49.742Z,1.8
2017-09-14T12:35:51.906Z,1.8
2017-09-14T12:36:54.536Z,2.0
2017-09-14T12:37:56.920Z,1.7
2017-09-14T12:39:00.255Z,2.0
2017-09-14T12:40:01.916Z,1.4
2017-09-14T12:41:04.940Z,1.8
2017-09-14T12:42:06.615Z,1.6
2017-09-14T12:43:09.687Z,1.4
2017-09-14T12:44:11.879Z,1.6
2017-09-14T12:45:16.705Z,1.8
2017-09-14T12:46:17.459Z,1.7
2017-09-14T12:47:22.474Z,1.4
2017-09-14T12:48:24.801Z,1.5
2017-09-14T12:49:28.229Z,1.2
2017-09-14T12:50:31.197Z,1.5
2017-09-14T12:51:34.895Z,1.3
2017-09-14T12:52:36.555Z,1.4
2017-09-14T12:53:40.472Z,1.5
2017-09-14T12:54:45.200Z,1.4
2017-09-14T12:55:45.977Z,1.6
2017-09-14T12:56:48.299Z,1.8
2017-09-14T12:57:51.205Z,1.7
2017-09-14T12:58:53.183Z,1.5
2017-09-14T12:59:57.387Z,1.5
2017-09-14T13:01:02.746Z,1.9
2017-09-14T13:02:06.524Z,1.5
2017-09-14T13:03:08.188Z,1.8
2017-09-14T13:04:11.575Z,1.6
2017-09-14T13:05:14.650Z,1.8
2017-09-14T13:06:16.810Z,1.7
2017-09-14T13:07:19.293Z,1.6
2017-09-14T13:08:20.965Z,1.5
2017-09-14T13:09:24.210Z,1.4
2017-09-14T13:10:27.711Z,1.5
2017-09-14T13:11:30.838Z,1.3
2017-09-14T13:12:34.653Z,1.5
2017-09-14T13:13:37.704Z,1.6
2017-09-14T13:14:39.976Z,1.5
2017-09-14T13:15:43.332Z,1.7
2017-09-14T13:16:46.560Z,1.8
2017-09-14T13:17:50.463Z,1.7
2017-09-14T13:18:53.715Z,1.9
2017-09-14T13:19:55.505Z,1.6
2017-09-14T13:20:58.449Z,1.5
2017-09-14T13:22:00.132Z,1.6
2017-09-14T13:23:04.271Z,1.7
2017-09-14T13:24:06.786Z,1.7
2017-09-14T13:25:08.452Z,1.7
2017-09-14T13:26:11.043Z,1.5
2017-09-14T13:27:14.531Z,1.6
2017-09-14T13:28:17.601Z,2.0
2017-09-14T13:29:19.271Z,2.0
2017-09-14T13:30:21.830Z,2.3
2017-09-14T13:31:25.259Z,1.6
2017-09-14T13:32:29.214Z,1.7
2017-09-14T13:33:30.935Z,1.8
2017-09-14T13:34:34.478Z,1.9
2017-09-14T13:35:37.780Z,1.6
2017-09-14T13:36:40.209Z,1.6
2017-09-14T13:37:42.633Z,1.7
2017-09-14T13:38:44.297Z,1.7
2017-09-14T13:39:48.345Z,1.6
2017-09-14T13:40:50.013Z,1.8
2017-09-14T13:41:54.712Z,1.8
2017-09-14T13:42:55.614Z,1.8
2017-09-14T13:43:58.045Z,1.9
2017-09-14T13:45:01.712Z,1.8
2017-09-14T13:46:04.621Z,1.7
2017-09-14T13:47:09.214Z,1.9
2017-09-14T13:48:10.473Z,2.2
2017-09-14T13:49:13.541Z,2.2
2017-09-14T13:50:16.783Z,2.4
2017-09-14T13:51:18.441Z,2.0
2017-09-14T13:52:20.134Z,1.6
2017-09-14T13:53:22.579Z,1.6
2017-09-14T13:54:24.249Z,1.7
2017-09-14T13:55:26.492Z,1.7
2017-09-14T14:01:52.385Z,1.7
2017-09-14T14:02:56.365Z,2.0
2017-09-14T14:03:59.652Z,1.7
2017-09-14T14:05:02.946Z,1.7
2017-09-14T14:06:06.547Z,1.2
2017-09-14T14:07:08.814Z,1.4
2017-09-14T14:08:11.095Z,1.4
2017-09-14T14:09:13.237Z,1.4
2017-09-14T14:10:15.398Z,1.2
2017-09-14T14:11:17.867Z,1.4
2017-09-14T14:12:18.681Z,1.4
2017-09-14T14:13:21.198Z,1.4
2017-09-14T14:14:25.008Z,1.5
2017-09-14T14:15:29.593Z,1.6
2017-09-14T14:16:32.364Z,1.5
2017-09-14T14:17:33.705Z,1.5
2017-09-14T14:18:36.802Z,1.6
2017-09-14T14:19:41.831Z,1.4
2017-09-14T14:20:44.054Z,1.4
2017-09-14T14:21:49.815Z,1.7
2017-09-14T14:22:53.533Z,1.5
2017-09-14T14:23:55.876Z,1.7
2017-09-14T14:24:59.617Z,1.8
2017-09-14T14:26:04.558Z,1.5
2017-09-14T14:27:06.967Z,1.7
2017-09-14T14:28:08.628Z,1.7
2017-09-14T14:29:11.640Z,1.6
2017-09-14T14:30:13.330Z,1.5
2017-09-14T14:31:16.901Z,1.8
2017-09-14T14:32:19.869Z,1.7
2017-09-14T14:33:21.619Z,1.4
2017-09-14T14:34:25.043Z,1.3
2017-09-14T14:35:27.463Z,1.9
2017-09-14T14:36:29.131Z,1.8
2017-09-14T14:37:31.226Z,1.5
2017-09-14T14:38:34.366Z,1.3
2017-09-14T14:39:37.062Z,1.5
2017-09-14T14:40:40.154Z,1.6
2017-09-14T14:41:43.497Z,1.5
2017-09-14T14:42:46.549Z,1.8
2017-09-14T14:43:48.940Z,1.9
2017-09-14T14:44:52.571Z,2.0
2017-09-14T14:45:56.023Z,1.7
2017-09-14T14:47:00.912Z,1.3
2017-09-14T14:48:03.423Z,2.1
2017-09-14T14:49:09.462Z,1.8
2017-09-14T14:50:14.026Z,1.8
2017-09-14T14:51:16.303Z,2.0
2017-09-14T14:52:19.992Z,2.2
2017-09-14T14:53:24.266Z,2.0
2017-09-14T14:54:27.278Z,2.1
2017-09-14T14:55:29.961Z,2.3
2017-09-14T14:56:33.369Z,1.9
2017-09-14T14:57:35.979Z,2.1
2017-09-14T14:58:39.089Z,2.1
2017-09-14T14:59:43.942Z,1.8
2017-09-14T15:00:45.594Z,2.0
2017-09-14T15:01:48.468Z,2.1
2017-09-14T15:02:52.961Z,1.6
2017-09-14T15:03:57.881Z,2.0
2017-09-14T15:04:59.581Z,1.8
2017-09-14T15:06:03.000Z,2.0
2017-09-14T15:07:05.408Z,2.0
2017-09-14T15:08:09.373Z,1.8
2017-09-14T15:09:12.422Z,1.8
2017-09-14T15:10:14.954Z,1.9
2017-09-14T15:11:19.458Z,1.8
2017-09-14T15:12:23.373Z,2.0
2017-09-14T15:13:27.372Z,1.5
2017-09-14T15:14:29.514Z,1.5
2017-09-14T15:15:32.017Z,1.7
2017-09-14T15:16:36.120Z,1.4
2017-09-14T15:17:39.515Z,1.9
2017-09-14T15:18:42.099Z,1.7
2017-09-14T15:19:47.376Z,1.4
2017-09-14T15:20:49.736Z,1.7
2017-09-14T15:21:51.393Z,2.0
2017-09-14T15:22:56.205Z,1.6
2017-09-14T15:24:02.379Z,1.3
2017-09-14T15:25:05.969Z,1.5
2017-09-14T15:26:10.502Z,1.5
2017-09-14T15:27:14.258Z,1.6
2017-09-14T15:28:16.832Z,1.7
2017-09-14T15:29:19.560Z,1.9
2017-09-14T15:30:22.365Z,2.0
2017-09-14T15:36:03.046Z,1.8
2017-09-14T15:37:05.647Z,1.6
2017-09-14T15:38:08.162Z,2.4
2017-09-14T15:39:11.647Z,2.3
2017-09-14T15:40:13.753Z,2.3
2017-09-14T15:41:16.222Z,1.9
2017-09-14T15:42:18.612Z,1.9
2017-09-14T15:43:23.519Z,2.1
2017-09-14T15:44:30.393Z,1.9
2017-09-14T15:45:33.514Z,1.9
2017-09-14T15:46:35.732Z,2.0
2017-09-14T15:47:39.034Z,1.6
2017-09-14T15:48:42.056Z,1.8
2017-09-14T15:49:46.394Z,1.7
2017-09-14T15:50:48.891Z,1.7
2017-09-14T15:51:51.066Z,1.9
2017-09-14T15:52:54.901Z,1.7
2017-09-14T15:53:56.488Z,1.7
2017-09-14T15:54:59.536Z,2.0
2017-09-14T15:56:01.206Z,1.8
2017-09-14T15:57:03.708Z,2.1
2017-09-14T15:58:08.006Z,1.9
2017-09-14T15:59:12.697Z,2.1
2017-09-14T16:00:15.983Z,2.4
2017-09-14T16:01:21.064Z,2.8
2017-09-14T16:02:24.283Z,2.7
2017-09-14T16:03:31.250Z,2.9
2017-09-14T16:04:33.338Z,2.4
2017-09-14T16:05:36.231Z,1.9
2017-09-14T16:06:37.896Z,2.1
2017-09-14T16:07:42.959Z,2.5
2017-09-14T16:08:46.933Z,2.2
2017-09-14T16:09:50.170Z,1.9
2017-09-14T16:10:51.975Z,2.1
2017-09-14T16:11:54.722Z,1.8
2017-09-14T16:12:58.509Z,1.9
2017-09-14T16:14:02.889Z,2.1
2017-09-14T16:15:05.563Z,2.1
2017-09-14T16:16:08.115Z,2.2
2017-09-14T16:17:10.729Z,1.9
2017-09-14T16:18:14.043Z,2.0
2017-09-14T16:19:15.736Z,2.0
2017-09-14T16:20:17.412Z,1.9
2017-09-14T16:21:19.761Z,2.0
2017-09-14T16:22:23.234Z,2.1
2017-09-14T16:23:24.876Z,2.0
2017-09-14T16:24:27.282Z,2.2
2017-09-14T16:25:31.491Z,2.1
2017-09-14T16:26:33.775Z,2.2
2017-09-14T16:27:36.197Z,2.5
2017-09-14T16:28:41.393Z,1.9
2017-09-14T16:29:44.026Z,1.8
2017-09-14T16:30:45.687Z,1.8
2017-09-14T16:31:49.177Z,2.0
2017-09-14T16:32:53.065Z,1.8
2017-09-14T16:33:55.461Z,1.8
2017-09-14T16:34:58.391Z,2.2
2017-09-14T16:36:01.671Z,1.8
2017-09-14T16:37:04.758Z,1.7
2017-09-14T16:38:09.103Z,1.6
2017-09-14T16:39:12.024Z,1.9
2017-09-14T16:40:14.226Z,1.6
2017-09-14T16:41:17.591Z,1.7
2017-09-14T16:42:21.393Z,1.8
2017-09-14T16:43:23.512Z,1.8
2017-09-14T16:44:27.989Z,1.7
2017-09-14T16:45:31.898Z,1.4
2017-09-14T16:46:34.397Z,1.8
2017-09-14T16:47:35.209Z,1.7
2017-09-14T16:48:40.065Z,1.6
2017-09-14T16:49:41.727Z,1.8
2017-09-14T16:50:46.132Z,1.9
2017-09-14T16:51:49.108Z,1.8
2017-09-14T16:52:51.396Z,1.8
2017-09-14T16:53:53.276Z,1.6
2017-09-14T16:54:55.892Z,1.5
2017-09-14T16:55:56.549Z,1.2
2017-09-14T16:57:01.635Z,1.4
2017-09-14T16:58:04.945Z,1.3
2017-09-14T16:59:07.160Z,1.4
2017-09-14T17:00:09.728Z,1.3
2017-09-14T17:01:11.995Z,1.0
2017-09-14T17:02:14.531Z,0.8
2017-09-14T17:03:16.905Z,1.0
2017-09-14T17:04:19.404Z,0.9
2017-09-14T17:05:23.184Z,1.2
2017-09-14T17:06:26.582Z,1.0
2017-09-14T17:07:29.896Z,1.8
2017-09-14T17:08:31.171Z,3.0
2017-09-14T17:09:35.326Z,1.9
2017-09-14T17:10:38.619Z,3.2
2017-09-14T17:11:42.424Z,1.8
2017-09-14T17:12:45.032Z,1.7
2017-09-14T17:13:49.895Z,1.1
2017-09-14T17:14:52.895Z,1.0
2017-09-14T17:15:57.011Z,0.9
2017-09-14T17:17:00.457Z,1.0
2017-09-14T17:18:04.629Z,1.0
2017-09-14T17:19:08.952Z,1.1
2017-09-14T17:20:10.621Z,1.2
2017-09-14T17:21:13.987Z,1.5
2017-09-14T17:22:16.567Z,1.6
2017-09-14T17:23:19.070Z,2.0
2017-09-14T17:24:20.726Z,1.5
2017-09-14T17:25:23.538Z,1.3
2017-09-14T17:26:26.605Z,2.0
2017-09-14T17:27:29.725Z,1.2
2017-09-14T17:28:33.144Z,1.2
2017-09-14T17:29:36.396Z,1.0
2017-09-14T17:30:38.237Z,1.4
2017-09-14T17:31:40.657Z,1.4
2017-09-14T17:32:43.460Z,1.2
2017-09-14T17:33:46.397Z,1.2
2017-09-14T17:34:49.057Z,1.5
2017-09-14T17:35:51.297Z,1.1
2017-09-14T17:36:54.637Z,1.4
2017-09-14T17:37:57.148Z,1.3
2017-09-14T17:38:59.460Z,1.1
2017-09-14T17:40:04.657Z,1.1
2017-09-14T17:41:07.041Z,1.3
2017-09-14T17:42:09.484Z,1.3
2017-09-14T17:43:13.036Z,1.2
2017-09-14T17:44:18.636Z,1.4
2017-09-14T17:45:21.138Z,1.3
2017-09-14T17:46:27.455Z,1.8
2017-09-14T17:47:30.145Z,1.4
2017-09-14T17:48:34.774Z,1.1
2017-09-14T17:49:37.521Z,1.2
2017-09-14T17:50:39.953Z,1.3
2017-09-14T17:51:44.406Z,1.1
2017-09-14T17:52:46.156Z,1.0
2017-09-14T17:53:51.904Z,1.4
2017-09-14T17:54:54.329Z,1.2
2017-09-14T18:01:30.113Z,0.9
2017-09-14T18:02:31.744Z,1.0
2017-09-14T18:03:36.872Z,1.2
2017-09-14T18:04:40.449Z,1.3
2017-09-14T18:05:45.689Z,1.4
2017-09-14T18:06:47.818Z,1.2
2017-09-14T18:07:49.630Z,1.0
2017-09-14T18:08:54.043Z,1.2
2017-09-14T18:09:57.991Z,1.9
2017-09-14T18:11:00.819Z,1.2
2017-09-14T18:12:06.505Z,1.1
2017-09-14T18:13:09.327Z,1.0
2017-09-14T18:14:11.940Z,1.2
2017-09-14T18:15:16.693Z,1.1
2017-09-14T18:16:20.294Z,1.2
2017-09-14T18:17:22.302Z,1.3
2017-09-14T18:18:26.820Z,1.3
2017-09-14T18:19:30.188Z,1.5
2017-09-14T18:20:33.457Z,1.5
2017-09-14T18:21:39.261Z,1.3
2017-09-14T18:22:42.702Z,1.0
2017-09-14T18:23:48.768Z,0.9
2017-09-14T18:24:51.368Z,1.0
2017-09-14T18:25:55.527Z,1.2
2017-09-14T18:26:58.698Z,1.1
2017-09-14T18:28:04.187Z,1.2
2017-09-14T18:29:06.178Z,1.5
2017-09-14T18:30:08.658Z,1.2
2017-09-14T18:31:11.710Z,0.9
2017-09-14T18:32:16.288Z,1.2
2017-09-14T18:33:20.255Z,1.3
2017-09-14T18:34:31.193Z,1.3
2017-09-14T18:35:33.486Z,1.1
2017-09-14T18:36:36.189Z,1.1
2017-09-14T18:37:38.613Z,1.0
2017-09-14T18:38:42.309Z,1.2
2017-09-14T18:39:45.008Z,1.0
2017-09-14T18:40:49.311Z,1.1
2017-09-14T18:41:51.912Z,1.2
2017-09-14T18:42:55.469Z,1.3
2017-09-14T18:43:58.105Z,1.1
2017-09-14T18:45:02.188Z,1.0
2017-09-14T18:46:04.003Z,1.0
2017-09-14T18:47:06.774Z,0.9
2017-09-14T18:48:10.027Z,1.1
2017-09-14T18:49:11.800Z,1.2
2017-09-14T18:50:16.311Z,1.3
2017-09-14T18:51:18.590Z,1.3
2017-09-14T18:52:22.699Z,1.2
2017-09-14T18:53:23.502Z,1.3
2017-09-14T18:54:26.475Z,1.5
2017-09-14T18:55:30.203Z,1.1